This is the latest recevied weather packets stored in our database for station/object KB4RFE. If no packets are shown the sender has not sent any weather packets the latest 1 day(s).
| Time | Temp. | Humidity | Pressure | Rain* | Wind** | Luminosity | Snow |
|---|---|---|---|---|---|---|---|
| 1777996641 | 22.78° C | 60% | 1021.6 hPa | 0 mm | 3.13 m/s, 217° | 945 W/m² | - |
| 1777996337 | 23.89° C | 56% | 1021.5 hPa | 0 mm | 1.79 m/s, 225° | 224 W/m² | - |
| 1777996033 | 23.89° C | 58% | 1021.8 hPa | 0 mm | 1.79 m/s, 204° | 85 W/m² | - |
| 1777995729 | 23.89° C | 60% | 1021.5 hPa | 0 mm | 1.34 m/s, 229° | 904 W/m² | - |
| 1777995426 | 23.33° C | 58% | 1021.6 hPa | 0 mm | 1.79 m/s, 230° | 899 W/m² | - |
| 1777995123 | 23.33° C | 58% | 1021.6 hPa | 0 mm | 1.34 m/s, 271° | 684 W/m² | - |
| 1777994820 | 23.33° C | 59% | 1021.6 hPa | 0 mm | 2.24 m/s, 244° | 843 W/m² | - |
| 1777994516 | 23.33° C | 60% | 1021.4 hPa | 0 mm | 2.68 m/s, 231° | 147 W/m² | - |
| 1777994211 | 23.89° C | 59% | 1021.6 hPa | 0 mm | 2.68 m/s, 240° | 658 W/m² | - |
| 1777993909 | 23.89° C | 57% | 1021.5 hPa | 0 mm | 2.68 m/s, 216° | 828 W/m² | - |
| 1777993605 | 23.33° C | 59% | 1021.5 hPa | 0 mm | 1.79 m/s, 250° | 833 W/m² | - |
| 1777993302 | 22.78° C | 59% | 1021.4 hPa | 0 mm | 1.79 m/s, 219° | 777 W/m² | - |
| 1777992997 | 23.33° C | 57% | 1021.2 hPa | 0 mm | 2.68 m/s, 218° | 763 W/m² | - |
| 1777992696 | 23.33° C | 60% | 1021.2 hPa | 0 mm | 2.24 m/s, 239° | 754 W/m² | - |
| 1777992393 | 23.33° C | 58% | 1021 hPa | 0 mm | 1.79 m/s, 244° | 717 W/m² | - |
| 1777992091 | 23.33° C | 60% | 1021.1 hPa | 0 mm | 0.89 m/s, 258° | 697 W/m² | - |
| 1777991788 | 22.78° C | 61% | 1021 hPa | 0 mm | 1.79 m/s, 255° | 675 W/m² | - |
| 1777991485 | 23.33° C | 58% | 1021.2 hPa | 0 mm | 0.89 m/s, 239° | 657 W/m² | - |
| 1777991182 | 22.78° C | 61% | 1021 hPa | 0 mm | 1.34 m/s, 256° | 648 W/m² | - |
| 1777990880 | 22.78° C | 59% | 1021.1 hPa | 0 mm | 2.68 m/s, 223° | 631 W/m² | - |
| 1777990577 | 22.78° C | 59% | 1021.1 hPa | 0 mm | 3.58 m/s, 192° | 612 W/m² | - |
| 1777990274 | 22.78° C | 57% | 1021 hPa | 0 mm | 3.13 m/s, 217° | 450 W/m² | - |
| 1777989971 | 22.78° C | 60% | 1021.1 hPa | 0 mm | 1.79 m/s, 241° | 586 W/m² | - |
| 1777989668 | 22.78° C | 61% | 1021.1 hPa | 0 mm | 2.24 m/s, 239° | 159 W/m² | - |
| 1777989363 | 22.78° C | 62% | 1021 hPa | 0 mm | 1.34 m/s, 272° | 546 W/m² | - |
* Rain latest hour (hover to see other rain measurements)
** Current wind speed in m/s (hover to see current wind gust speed)